sensor_id;sensor_type;location;lat;lon;timestamp;P1;durP1;ratioP1;P2;durP2;ratioP2
20287;SDS011;10303;51.960;8.372;2023-10-13T00:00:36;5.33;;;4.70;;
20287;SDS011;10303;51.960;8.372;2023-10-13T00:03:02;12.10;;;7.90;;
20287;SDS011;10303;51.960;8.372;2023-10-13T00:05:31;6.73;;;5.67;;
20287;SDS011;10303;51.960;8.372;2023-10-13T00:07:59;8.83;;;6.20;;
20287;SDS011;10303;51.960;8.372;2023-10-13T00:10:29;9.07;;;6.40;;
20287;SDS011;10303;51.960;8.372;2023-10-13T00:12:56;6.67;;;5.80;;
20287;SDS011;10303;51.960;8.372;2023-10-13T00:15:44;6.10;;;5.10;;
20287;SDS011;10303;51.960;8.372;2023-10-13T00:18:18;6.33;;;5.23;;
20287;SDS011;10303;51.960;8.372;2023-10-13T00:20:45;8.83;;;5.83;;
20287;SDS011;10303;51.960;8.372;2023-10-13T00:23:14;6.40;;;4.77;;
20287;SDS011;10303;51.960;8.372;2023-10-13T00:25:49;7.77;;;6.07;;
20287;SDS011;10303;51.960;8.372;2023-10-13T00:28:23;7.77;;;6.90;;
20287;SDS011;10303;51.960;8.372;2023-10-13T00:30:52;7.90;;;6.17;;
20287;SDS011;10303;51.960;8.372;2023-10-13T00:33:26;10.40;;;5.80;;
20287;SDS011;10303;51.960;8.372;2023-10-13T00:35:52;6.97;;;6.33;;
20287;SDS011;10303;51.960;8.372;2023-10-13T00:38:22;8.00;;;5.97;;
20287;SDS011;10303;51.960;8.372;2023-10-13T00:40:48;10.10;;;7.87;;
20287;SDS011;10303;51.960;8.372;2023-10-13T00:43:17;10.90;;;6.90;;
20287;SDS011;10303;51.960;8.372;2023-10-13T00:45:46;11.80;;;6.90;;
20287;SDS011;10303;51.960;8.372;2023-10-13T00:48:42;8.80;;;6.13;;
20287;SDS011;10303;51.960;8.372;2023-10-13T00:51:17;6.60;;;5.33;;
20287;SDS011;10303;51.960;8.372;2023-10-13T00:54:06;8.57;;;5.30;;
20287;SDS011;10303;51.960;8.372;2023-10-13T00:56:37;5.37;;;4.87;;
20287;SDS011;10303;51.960;8.372;2023-10-13T00:59:09;6.82;;;6.22;;
20287;SDS011;10303;51.960;8.372;2023-10-13T01:01:38;10.85;;;8.48;;
20287;SDS011;10303;51.960;8.372;2023-10-13T01:04:08;6.32;;;5.72;;
20287;SDS011;10303;51.960;8.372;2023-10-13T01:06:37;6.47;;;5.88;;
20287;SDS011;10303;51.960;8.372;2023-10-13T01:09:05;10.50;;;6.75;;
20287;SDS011;10303;51.960;8.372;2023-10-13T01:11:42;5.97;;;5.37;;
20287;SDS011;10303;51.960;8.372;2023-10-13T01:14:18;14.02;;;7.60;;
20287;SDS011;10303;51.960;8.372;2023-10-13T01:16:48;9.10;;;6.70;;
20287;SDS011;10303;51.960;8.372;2023-10-13T01:19:18;7.20;;;6.40;;
20287;SDS011;10303;51.960;8.372;2023-10-13T01:21:50;8.13;;;6.17;;
20287;SDS011;10303;51.960;8.372;2023-10-13T01:24:27;9.65;;;7.20;;
20287;SDS011;10303;51.960;8.372;2023-10-13T01:26:56;9.68;;;5.85;;
20287;SDS011;10303;51.960;8.372;2023-10-13T01:29:28;5.43;;;4.93;;
20287;SDS011;10303;51.960;8.372;2023-10-13T01:31:55;8.77;;;5.33;;
20287;SDS011;10303;51.960;8.372;2023-10-13T01:34:21;6.50;;;5.82;;
20287;SDS011;10303;51.960;8.372;2023-10-13T01:36:49;7.35;;;5.00;;
20287;SDS011;10303;51.960;8.372;2023-10-13T01:39:21;4.45;;;4.05;;
20287;SDS011;10303;51.960;8.372;2023-10-13T01:41:54;7.07;;;5.40;;
20287;SDS011;10303;51.960;8.372;2023-10-13T01:46:56;5.20;;;4.55;;
20287;SDS011;10303;51.960;8.372;2023-10-13T01:49:25;6.05;;;5.55;;
20287;SDS011;10303;51.960;8.372;2023-10-13T01:51:51;6.57;;;5.18;;
20287;SDS011;10303;51.960;8.372;2023-10-13T01:54:17;6.45;;;5.65;;
20287;SDS011;10303;51.960;8.372;2023-10-13T01:56:46;5.32;;;4.78;;
20287;SDS011;10303;51.960;8.372;2023-10-13T01:59:14;5.95;;;5.35;;
20287;SDS011;10303;51.960;8.372;2023-10-13T02:01:40;7.78;;;5.80;;
20287;SDS011;10303;51.960;8.372;2023-10-13T02:04:07;11.27;;;6.10;;
20287;SDS011;10303;51.960;8.372;2023-10-13T02:06:36;6.38;;;5.78;;
20287;SDS011;10303;51.960;8.372;2023-10-13T02:09:07;5.03;;;4.63;;
20287;SDS011;10303;51.960;8.372;2023-10-13T02:11:51;6.05;;;5.20;;
20287;SDS011;10303;51.960;8.372;2023-10-13T02:14:22;4.90;;;4.50;;
20287;SDS011;10303;51.960;8.372;2023-10-13T02:16:51;7.40;;;5.05;;
20287;SDS011;10303;51.960;8.372;2023-10-13T02:19:36;4.22;;;3.88;;
20287;SDS011;10303;51.960;8.372;2023-10-13T02:22:11;9.27;;;6.78;;
20287;SDS011;10303;51.960;8.372;2023-10-13T02:24:49;6.00;;;5.50;;
20287;SDS011;10303;51.960;8.372;2023-10-13T02:27:17;6.78;;;4.40;;
20287;SDS011;10303;51.960;8.372;2023-10-13T02:29:51;6.70;;;5.43;;
20287;SDS011;10303;51.960;8.372;2023-10-13T02:32:23;5.18;;;4.75;;
20287;SDS011;10303;51.960;8.372;2023-10-13T02:34:51;6.67;;;5.03;;
20287;SDS011;10303;51.960;8.372;2023-10-13T02:37:17;5.57;;;5.00;;
20287;SDS011;10303;51.960;8.372;2023-10-13T02:39:45;11.35;;;6.78;;
20287;SDS011;10303;51.960;8.372;2023-10-13T02:42:11;6.67;;;4.97;;
20287;SDS011;10303;51.960;8.372;2023-10-13T02:44:49;5.50;;;5.05;;
20287;SDS011;10303;51.960;8.372;2023-10-13T02:47:16;6.50;;;5.17;;
20287;SDS011;10303;51.960;8.372;2023-10-13T02:49:44;5.82;;;5.30;;
20287;SDS011;10303;51.960;8.372;2023-10-13T02:52:13;6.33;;;4.93;;
20287;SDS011;10303;51.960;8.372;2023-10-13T02:54:39;4.60;;;4.20;;
20287;SDS011;10303;51.960;8.372;2023-10-13T02:57:15;4.78;;;4.28;;
20287;SDS011;10303;51.960;8.372;2023-10-13T02:59:42;6.72;;;5.22;;
20287;SDS011;10303;51.960;8.372;2023-10-13T03:02:13;5.03;;;4.53;;
20287;SDS011;10303;51.960;8.372;2023-10-13T03:04:58;5.75;;;5.15;;
20287;SDS011;10303;51.960;8.372;2023-10-13T03:07:25;6.78;;;5.18;;
20287;SDS011;10303;51.960;8.372;2023-10-13T03:09:56;5.60;;;5.10;;
20287;SDS011;10303;51.960;8.372;2023-10-13T03:12:26;6.03;;;5.17;;
20287;SDS011;10303;51.960;8.372;2023-10-13T03:14:58;5.78;;;5.25;;
20287;SDS011;10303;51.960;8.372;2023-10-13T03:17:46;6.85;;;5.53;;
20287;SDS011;10303;51.960;8.372;2023-10-13T03:20:13;6.38;;;5.80;;
20287;SDS011;10303;51.960;8.372;2023-10-13T03:22:47;5.77;;;5.13;;
20287;SDS011;10303;51.960;8.372;2023-10-13T03:25:17;5.47;;;5.07;;
20287;SDS011;10303;51.960;8.372;2023-10-13T03:28:06;9.80;;;5.85;;
20287;SDS011;10303;51.960;8.372;2023-10-13T03:30:35;6.17;;;4.83;;
20287;SDS011;10303;51.960;8.372;2023-10-13T03:33:03;6.37;;;5.77;;
20287;SDS011;10303;51.960;8.372;2023-10-13T03:35:37;7.33;;;5.60;;
20287;SDS011;10303;51.960;8.372;2023-10-13T03:38:09;6.10;;;5.50;;
20287;SDS011;10303;51.960;8.372;2023-10-13T03:40:43;7.80;;;6.60;;
20287;SDS011;10303;51.960;8.372;2023-10-13T03:43:32;6.00;;;5.50;;
20287;SDS011;10303;51.960;8.372;2023-10-13T03:46:10;8.13;;;6.30;;
20287;SDS011;10303;51.960;8.372;2023-10-13T03:48:36;6.53;;;5.95;;
20287;SDS011;10303;51.960;8.372;2023-10-13T03:51:17;5.37;;;4.87;;
20287;SDS011;10303;51.960;8.372;2023-10-13T03:53:44;8.07;;;5.40;;
20287;SDS011;10303;51.960;8.372;2023-10-13T03:56:20;7.20;;;5.63;;
20287;SDS011;10303;51.960;8.372;2023-10-13T03:59:04;5.13;;;4.72;;
20287;SDS011;10303;51.960;8.372;2023-10-13T04:01:34;5.50;;;5.00;;
20287;SDS011;10303;51.960;8.372;2023-10-13T04:04:17;5.72;;;5.18;;
20287;SDS011;10303;51.960;8.372;2023-10-13T04:06:59;5.68;;;4.55;;
20287;SDS011;10303;51.960;8.372;2023-10-13T04:09:35;6.27;;;4.83;;
20287;SDS011;10303;51.960;8.372;2023-10-13T04:12:20;5.20;;;4.70;;
20287;SDS011;10303;51.960;8.372;2023-10-13T04:15:11;5.73;;;5.23;;
20287;SDS011;10303;51.960;8.372;2023-10-13T04:17:43;5.83;;;5.23;;
20287;SDS011;10303;51.960;8.372;2023-10-13T04:20:13;4.73;;;4.33;;
20287;SDS011;10303;51.960;8.372;2023-10-13T04:22:52;6.50;;;5.07;;
20287;SDS011;10303;51.960;8.372;2023-10-13T04:25:20;5.73;;;5.20;;
20287;SDS011;10303;51.960;8.372;2023-10-13T04:30:37;5.05;;;4.65;;
20287;SDS011;10303;51.960;8.372;2023-10-13T04:33:23;7.72;;;6.85;;
20287;SDS011;10303;51.960;8.372;2023-10-13T04:36:07;5.22;;;4.82;;
20287;SDS011;10303;51.960;8.372;2023-10-13T04:38:58;5.05;;;4.50;;
20287;SDS011;10303;51.960;8.372;2023-10-13T04:41:34;6.45;;;5.50;;
20287;SDS011;10303;51.960;8.372;2023-10-13T04:44:07;6.93;;;6.22;;
20287;SDS011;10303;51.960;8.372;2023-10-13T04:46:54;6.03;;;5.45;;
20287;SDS011;10303;51.960;8.372;2023-10-13T04:49:24;4.57;;;4.17;;
20287;SDS011;10303;51.960;8.372;2023-10-13T04:52:05;5.95;;;5.45;;
20287;SDS011;10303;51.960;8.372;2023-10-13T04:54:34;6.95;;;5.85;;
20287;SDS011;10303;51.960;8.372;2023-10-13T04:57:13;7.03;;;6.32;;
20287;SDS011;10303;51.960;8.372;2023-10-13T05:00:03;6.07;;;5.50;;
20287;SDS011;10303;51.960;8.372;2023-10-13T05:02:55;6.40;;;5.73;;
20287;SDS011;10303;51.960;8.372;2023-10-13T05:05:42;5.03;;;4.63;;
20287;SDS011;10303;51.960;8.372;2023-10-13T05:08:11;5.30;;;4.63;;
20287;SDS011;10303;51.960;8.372;2023-10-13T05:10:56;12.83;;;6.87;;
20287;SDS011;10303;51.960;8.372;2023-10-13T05:13:41;6.30;;;4.77;;
20287;SDS011;10303;51.960;8.372;2023-10-13T05:16:25;4.67;;;4.13;;
20287;SDS011;10303;51.960;8.372;2023-10-13T05:19:10;3.75;;;3.42;;
20287;SDS011;10303;51.960;8.372;2023-10-13T05:21:54;3.93;;;3.53;;
20287;SDS011;10303;51.960;8.372;2023-10-13T05:24:39;4.63;;;3.80;;
20287;SDS011;10303;51.960;8.372;2023-10-13T05:27:23;3.73;;;3.43;;
20287;SDS011;10303;51.960;8.372;2023-10-13T05:30:07;4.35;;;3.97;;
20287;SDS011;10303;51.960;8.372;2023-10-13T05:32:53;4.63;;;4.23;;
20287;SDS011;10303;51.960;8.372;2023-10-13T05:35:37;5.00;;;4.10;;
20287;SDS011;10303;51.960;8.372;2023-10-13T05:38:21;4.50;;;4.10;;
20287;SDS011;10303;51.960;8.372;2023-10-13T05:41:05;3.83;;;3.47;;
20287;SDS011;10303;51.960;8.372;2023-10-13T05:43:50;3.85;;;3.45;;
20287;SDS011;10303;51.960;8.372;2023-10-13T05:46:34;3.53;;;3.15;;
20287;SDS011;10303;51.960;8.372;2023-10-13T05:49:14;3.57;;;3.27;;
20287;SDS011;10303;51.960;8.372;2023-10-13T05:51:44;3.20;;;3.00;;
20287;SDS011;10303;51.960;8.372;2023-10-13T05:54:23;2.75;;;2.55;;
20287;SDS011;10303;51.960;8.372;2023-10-13T05:56:50;3.95;;;3.58;;
20287;SDS011;10303;51.960;8.372;2023-10-13T05:59:36;3.20;;;2.58;;
20287;SDS011;10303;51.960;8.372;2023-10-13T06:02:22;2.90;;;2.70;;
20287;SDS011;10303;51.960;8.372;2023-10-13T06:05:08;2.60;;;2.40;;
20287;SDS011;10303;51.960;8.372;2023-10-13T06:07:56;3.20;;;2.90;;
20287;SDS011;10303;51.960;8.372;2023-10-13T06:10:42;3.33;;;3.03;;
20287;SDS011;10303;51.960;8.372;2023-10-13T06:13:27;2.90;;;2.43;;
20287;SDS011;10303;51.960;8.372;2023-10-13T06:16:13;3.30;;;3.03;;
20287;SDS011;10303;51.960;8.372;2023-10-13T06:18:59;4.10;;;3.40;;
20287;SDS011;10303;51.960;8.372;2023-10-13T06:21:44;4.17;;;3.77;;
20287;SDS011;10303;51.960;8.372;2023-10-13T06:24:29;3.92;;;2.95;;
20287;SDS011;10303;51.960;8.372;2023-10-13T06:27:16;3.67;;;3.35;;
20287;SDS011;10303;51.960;8.372;2023-10-13T06:30:02;3.87;;;2.97;;
20287;SDS011;10303;51.960;8.372;2023-10-13T06:32:30;3.25;;;3.00;;
20287;SDS011;10303;51.960;8.372;2023-10-13T06:34:57;3.90;;;3.37;;
20287;SDS011;10303;51.960;8.372;2023-10-13T06:37:24;3.57;;;3.27;;
20287;SDS011;10303;51.960;8.372;2023-10-13T06:39:52;3.78;;;3.47;;
20287;SDS011;10303;51.960;8.372;2023-10-13T06:42:28;4.13;;;3.08;;
20287;SDS011;10303;51.960;8.372;2023-10-13T06:44:55;3.70;;;3.40;;
20287;SDS011;10303;51.960;8.372;2023-10-13T06:47:22;4.03;;;3.47;;
20287;SDS011;10303;51.960;8.372;2023-10-13T06:49:49;3.13;;;2.90;;
20287;SDS011;10303;51.960;8.372;2023-10-13T06:52:20;4.15;;;3.47;;
20287;SDS011;10303;51.960;8.372;2023-10-13T06:54:54;4.03;;;3.30;;
20287;SDS011;10303;51.960;8.372;2023-10-13T06:57:21;5.32;;;3.42;;
20287;SDS011;10303;51.960;8.372;2023-10-13T06:59:47;3.53;;;3.17;;
20287;SDS011;10303;51.960;8.372;2023-10-13T07:02:13;4.70;;;4.18;;
20287;SDS011;10303;51.960;8.372;2023-10-13T07:04:50;3.83;;;3.37;;
20287;SDS011;10303;51.960;8.372;2023-10-13T07:07:22;4.57;;;3.58;;
20287;SDS011;10303;51.960;8.372;2023-10-13T07:09:49;4.97;;;4.18;;
20287;SDS011;10303;51.960;8.372;2023-10-13T07:12:20;3.80;;;3.45;;
20287;SDS011;10303;51.960;8.372;2023-10-13T07:14:58;9.45;;;4.05;;
20287;SDS011;10303;51.960;8.372;2023-10-13T07:17:44;3.63;;;3.00;;
20287;SDS011;10303;51.960;8.372;2023-10-13T07:20:12;3.67;;;3.03;;
20287;SDS011;10303;51.960;8.372;2023-10-13T07:22:59;5.38;;;3.08;;
20287;SDS011;10303;51.960;8.372;2023-10-13T07:25:34;4.28;;;3.60;;
20287;SDS011;10303;51.960;8.372;2023-10-13T07:28:06;6.30;;;3.17;;
20287;SDS011;10303;51.960;8.372;2023-10-13T07:30:35;4.50;;;2.88;;
20287;SDS011;10303;51.960;8.372;2023-10-13T07:33:18;3.28;;;2.90;;
20287;SDS011;10303;51.960;8.372;2023-10-13T07:35:45;2.90;;;2.67;;
20287;SDS011;10303;51.960;8.372;2023-10-13T07:38:16;2.63;;;2.30;;
20287;SDS011;10303;51.960;8.372;2023-10-13T07:40:46;3.38;;;2.50;;
20287;SDS011;10303;51.960;8.372;2023-10-13T07:43:16;2.78;;;2.17;;
20287;SDS011;10303;51.960;8.372;2023-10-13T07:45:46;6.18;;;2.72;;
20287;SDS011;10303;51.960;8.372;2023-10-13T07:48:17;2.47;;;2.28;;
20287;SDS011;10303;51.960;8.372;2023-10-13T07:50:58;2.47;;;2.10;;
20287;SDS011;10303;51.960;8.372;2023-10-13T07:53:37;3.20;;;2.28;;
20287;SDS011;10303;51.960;8.372;2023-10-13T07:56:06;3.65;;;3.25;;
20287;SDS011;10303;51.960;8.372;2023-10-13T07:58:39;3.40;;;3.10;;
20287;SDS011;10303;51.960;8.372;2023-10-13T08:01:31;2.72;;;2.22;;
20287;SDS011;10303;51.960;8.372;2023-10-13T08:03:59;2.58;;;2.38;;
20287;SDS011;10303;51.960;8.372;2023-10-13T08:06:36;2.90;;;2.13;;
20287;SDS011;10303;51.960;8.372;2023-10-13T08:09:05;2.55;;;2.20;;
20287;SDS011;10303;51.960;8.372;2023-10-13T08:11:52;3.72;;;2.30;;
20287;SDS011;10303;51.960;8.372;2023-10-13T08:14:19;1.85;;;1.75;;
20287;SDS011;10303;51.960;8.372;2023-10-13T08:16:49;1.58;;;1.48;;
20287;SDS011;10303;51.960;8.372;2023-10-13T08:19:21;2.53;;;2.05;;
20287;SDS011;10303;51.960;8.372;2023-10-13T08:22:08;2.92;;;1.65;;
20287;SDS011;10303;51.960;8.372;2023-10-13T08:24:44;3.67;;;1.60;;
20287;SDS011;10303;51.960;8.372;2023-10-13T08:27:10;2.85;;;2.13;;
20287;SDS011;10303;51.960;8.372;2023-10-13T08:29:59;4.18;;;1.90;;
20287;SDS011;10303;51.960;8.372;2023-10-13T08:32:44;3.83;;;2.35;;
20287;SDS011;10303;51.960;8.372;2023-10-13T08:35:20;2.45;;;1.98;;
20287;SDS011;10303;51.960;8.372;2023-10-13T08:37:55;2.08;;;1.63;;
20287;SDS011;10303;51.960;8.372;2023-10-13T08:40:26;2.00;;;1.90;;
20287;SDS011;10303;51.960;8.372;2023-10-13T08:43:10;2.22;;;2.03;;
20287;SDS011;10303;51.960;8.372;2023-10-13T08:45:37;1.80;;;1.70;;
20287;SDS011;10303;51.960;8.372;2023-10-13T08:48:12;3.95;;;2.28;;
20287;SDS011;10303;51.960;8.372;2023-10-13T08:50:40;1.63;;;1.52;;
20287;SDS011;10303;51.960;8.372;2023-10-13T08:53:17;1.88;;;1.70;;
20287;SDS011;10303;51.960;8.372;2023-10-13T08:55:57;3.05;;;1.95;;
20287;SDS011;10303;51.960;8.372;2023-10-13T09:01:20;8.38;;;3.00;;
20287;SDS011;10303;51.960;8.372;2023-10-13T09:04:02;3.53;;;2.17;;
20287;SDS011;10303;51.960;8.372;2023-10-13T09:09:50;3.28;;;2.30;;
20287;SDS011;10303;51.960;8.372;2023-10-13T09:14:54;5.43;;;2.15;;
20287;SDS011;10303;51.960;8.372;2023-10-13T09:17:30;5.75;;;2.65;;
20287;SDS011;10303;51.960;8.372;2023-10-13T09:20:04;10.90;;;3.63;;
20287;SDS011;10303;51.960;8.372;2023-10-13T09:22:47;5.10;;;2.50;;
20287;SDS011;10303;51.960;8.372;2023-10-13T09:25:27;4.15;;;2.10;;
20287;SDS011;10303;51.960;8.372;2023-10-13T09:28:00;2.28;;;2.08;;
20287;SDS011;10303;51.960;8.372;2023-10-13T09:30:43;11.73;;;3.60;;
20287;SDS011;10303;51.960;8.372;2023-10-13T09:33:11;6.18;;;2.58;;
20287;SDS011;10303;51.960;8.372;2023-10-13T09:35:46;6.55;;;2.13;;
20287;SDS011;10303;51.960;8.372;2023-10-13T09:38:18;3.67;;;3.00;;
20287;SDS011;10303;51.960;8.372;2023-10-13T09:40:45;6.88;;;2.88;;
20287;SDS011;10303;51.960;8.372;2023-10-13T09:43:18;3.45;;;2.67;;
20287;SDS011;10303;51.960;8.372;2023-10-13T09:45:46;5.03;;;2.85;;
20287;SDS011;10303;51.960;8.372;2023-10-13T09:48:36;5.13;;;2.40;;
20287;SDS011;10303;51.960;8.372;2023-10-13T09:51:11;6.25;;;3.17;;
20287;SDS011;10303;51.960;8.372;2023-10-13T09:53:40;4.57;;;2.80;;
20287;SDS011;10303;51.960;8.372;2023-10-13T09:56:25;3.42;;;2.35;;
20287;SDS011;10303;51.960;8.372;2023-10-13T09:59:17;4.38;;;2.88;;
20287;SDS011;10303;51.960;8.372;2023-10-13T10:02:08;5.63;;;2.92;;
20287;SDS011;10303;51.960;8.372;2023-10-13T10:04:38;5.68;;;3.03;;
20287;SDS011;10303;51.960;8.372;2023-10-13T10:07:28;4.40;;;2.75;;
20287;SDS011;10303;51.960;8.372;2023-10-13T10:09:58;3.20;;;2.90;;
20287;SDS011;10303;51.960;8.372;2023-10-13T10:12:42;8.15;;;3.20;;
20287;SDS011;10303;51.960;8.372;2023-10-13T10:18:21;8.20;;;4.30;;
20287;SDS011;10303;51.960;8.372;2023-10-13T10:20:51;7.95;;;3.30;;
20287;SDS011;10303;51.960;8.372;2023-10-13T10:23:27;7.85;;;3.58;;
20287;SDS011;10303;51.960;8.372;2023-10-13T10:25:58;5.43;;;3.47;;
20287;SDS011;10303;51.960;8.372;2023-10-13T10:28:42;5.30;;;3.38;;
20287;SDS011;10303;51.960;8.372;2023-10-13T10:31:09;7.88;;;3.20;;
20287;SDS011;10303;51.960;8.372;2023-10-13T10:33:40;4.55;;;3.72;;
20287;SDS011;10303;51.960;8.372;2023-10-13T10:36:06;7.65;;;3.25;;
20287;SDS011;10303;51.960;8.372;2023-10-13T10:38:54;5.70;;;3.67;;
20287;SDS011;10303;51.960;8.372;2023-10-13T10:41:28;4.43;;;2.50;;
20287;SDS011;10303;51.960;8.372;2023-10-13T10:44:09;4.60;;;3.35;;
20287;SDS011;10303;51.960;8.372;2023-10-13T10:46:48;13.07;;;3.42;;
20287;SDS011;10303;51.960;8.372;2023-10-13T10:49:23;5.30;;;3.40;;
20287;SDS011;10303;51.960;8.372;2023-10-13T10:51:57;5.70;;;2.70;;
20287;SDS011;10303;51.960;8.372;2023-10-13T10:54:26;8.18;;;2.63;;
20287;SDS011;10303;51.960;8.372;2023-10-13T10:56:57;7.50;;;3.30;;
20287;SDS011;10303;51.960;8.372;2023-10-13T10:59:43;3.75;;;3.00;;
20287;SDS011;10303;51.960;8.372;2023-10-13T11:02:10;7.53;;;2.50;;
20287;SDS011;10303;51.960;8.372;2023-10-13T11:04:40;5.40;;;3.40;;
20287;SDS011;10303;51.960;8.372;2023-10-13T11:07:22;4.40;;;2.92;;
20287;SDS011;10303;51.960;8.372;2023-10-13T11:09:50;5.68;;;3.33;;
20287;SDS011;10303;51.960;8.372;2023-10-13T11:12:31;6.35;;;3.90;;
20287;SDS011;10303;51.960;8.372;2023-10-13T11:15:06;5.75;;;3.63;;
20287;SDS011;10303;51.960;8.372;2023-10-13T11:17:48;5.38;;;3.50;;
20287;SDS011;10303;51.960;8.372;2023-10-13T11:20:23;7.22;;;2.92;;
20287;SDS011;10303;51.960;8.372;2023-10-13T11:23:11;5.78;;;3.58;;
20287;SDS011;10303;51.960;8.372;2023-10-13T11:25:39;4.95;;;3.35;;
20287;SDS011;10303;51.960;8.372;2023-10-13T11:28:14;7.43;;;3.85;;
20287;SDS011;10303;51.960;8.372;2023-10-13T11:30:57;4.93;;;3.20;;
20287;SDS011;10303;51.960;8.372;2023-10-13T11:33:27;3.17;;;2.50;;
20287;SDS011;10303;51.960;8.372;2023-10-13T11:35:53;3.92;;;2.55;;
20287;SDS011;10303;51.960;8.372;2023-10-13T11:38:22;7.50;;;3.15;;
20287;SDS011;10303;51.960;8.372;2023-10-13T11:41:14;9.50;;;4.10;;
20287;SDS011;10303;51.960;8.372;2023-10-13T11:46:23;8.75;;;3.65;;
20287;SDS011;10303;51.960;8.372;2023-10-13T11:49:02;7.10;;;2.92;;
20287;SDS011;10303;51.960;8.372;2023-10-13T11:51:41;14.05;;;4.90;;
20287;SDS011;10303;51.960;8.372;2023-10-13T11:54:26;20.17;;;4.35;;
20287;SDS011;10303;51.960;8.372;2023-10-13T11:56:52;6.13;;;3.22;;
20287;SDS011;10303;51.960;8.372;2023-10-13T11:59:18;9.88;;;4.22;;
20287;SDS011;10303;51.960;8.372;2023-10-13T12:04:29;6.65;;;2.95;;
20287;SDS011;10303;51.960;8.372;2023-10-13T12:06:58;9.32;;;3.38;;
20287;SDS011;10303;51.960;8.372;2023-10-13T12:09:41;5.32;;;3.05;;
20287;SDS011;10303;51.960;8.372;2023-10-13T12:12:28;9.05;;;4.07;;
20287;SDS011;10303;51.960;8.372;2023-10-13T12:14:56;7.90;;;3.28;;
20287;SDS011;10303;51.960;8.372;2023-10-13T12:17:26;9.00;;;3.95;;
20287;SDS011;10303;51.960;8.372;2023-10-13T12:20:08;20.77;;;3.92;;
20287;SDS011;10303;51.960;8.372;2023-10-13T12:22:43;9.88;;;3.47;;
20287;SDS011;10303;51.960;8.372;2023-10-13T12:25:20;11.40;;;3.63;;
20287;SDS011;10303;51.960;8.372;2023-10-13T12:27:58;5.95;;;3.80;;
20287;SDS011;10303;51.960;8.372;2023-10-13T12:30:38;10.32;;;3.65;;
20287;SDS011;10303;51.960;8.372;2023-10-13T12:33:20;11.07;;;4.00;;
20287;SDS011;10303;51.960;8.372;2023-10-13T12:35:56;8.68;;;3.90;;
20287;SDS011;10303;51.960;8.372;2023-10-13T12:38:36;7.88;;;3.58;;
20287;SDS011;10303;51.960;8.372;2023-10-13T12:41:11;10.73;;;4.18;;
20287;SDS011;10303;51.960;8.372;2023-10-13T12:43:59;8.57;;;3.47;;
20287;SDS011;10303;51.960;8.372;2023-10-13T12:46:44;9.23;;;4.03;;
20287;SDS011;10303;51.960;8.372;2023-10-13T12:49:29;5.47;;;3.55;;
20287;SDS011;10303;51.960;8.372;2023-10-13T12:52:06;4.93;;;2.97;;
20287;SDS011;10303;51.960;8.372;2023-10-13T12:54:50;10.38;;;3.55;;
20287;SDS011;10303;51.960;8.372;2023-10-13T12:59:51;10.60;;;3.47;;
20287;SDS011;10303;51.960;8.372;2023-10-13T13:02:22;6.05;;;3.67;;
20287;SDS011;10303;51.960;8.372;2023-10-13T13:04:50;9.07;;;4.00;;
20287;SDS011;10303;51.960;8.372;2023-10-13T13:07:22;13.93;;;4.30;;
20287;SDS011;10303;51.960;8.372;2023-10-13T13:09:54;7.60;;;3.53;;
20287;SDS011;10303;51.960;8.372;2023-10-13T13:12:24;4.70;;;3.65;;
20287;SDS011;10303;51.960;8.372;2023-10-13T13:14:50;9.70;;;4.25;;
20287;SDS011;10303;51.960;8.372;2023-10-13T13:17:22;8.80;;;4.03;;
20287;SDS011;10303;51.960;8.372;2023-10-13T13:19:49;5.88;;;3.17;;
20287;SDS011;10303;51.960;8.372;2023-10-13T13:22:14;5.45;;;3.28;;
20287;SDS011;10303;51.960;8.372;2023-10-13T13:24:43;7.32;;;4.00;;
20287;SDS011;10303;51.960;8.372;2023-10-13T13:27:10;6.65;;;3.58;;
20287;SDS011;10303;51.960;8.372;2023-10-13T13:29:42;11.38;;;3.97;;
20287;SDS011;10303;51.960;8.372;2023-10-13T13:32:11;8.65;;;3.17;;
20287;SDS011;10303;51.960;8.372;2023-10-13T13:34:50;8.32;;;3.00;;
20287;SDS011;10303;51.960;8.372;2023-10-13T13:37:35;10.07;;;3.72;;
20287;SDS011;10303;51.960;8.372;2023-10-13T13:40:05;11.82;;;4.00;;
20287;SDS011;10303;51.960;8.372;2023-10-13T13:42:41;14.95;;;3.88;;
20287;SDS011;10303;51.960;8.372;2023-10-13T13:45:15;5.25;;;4.28;;
20287;SDS011;10303;51.960;8.372;2023-10-13T13:47:50;5.78;;;3.85;;
20287;SDS011;10303;51.960;8.372;2023-10-13T13:50:19;10.18;;;4.35;;
20287;SDS011;10303;51.960;8.372;2023-10-13T13:52:52;7.32;;;4.20;;
20287;SDS011;10303;51.960;8.372;2023-10-13T13:55:24;5.95;;;3.72;;
20287;SDS011;10303;51.960;8.372;2023-10-13T13:57:57;9.05;;;4.35;;
20287;SDS011;10303;51.960;8.372;2023-10-13T14:00:23;12.73;;;4.20;;
20287;SDS011;10303;51.960;8.372;2023-10-13T14:03:08;25.42;;;4.68;;
20287;SDS011;10303;51.960;8.372;2023-10-13T14:05:43;9.77;;;3.88;;
20287;SDS011;10303;51.960;8.372;2023-10-13T14:08:10;15.15;;;4.40;;
20287;SDS011;10303;51.960;8.372;2023-10-13T14:10:40;7.43;;;3.92;;
20287;SDS011;10303;51.960;8.372;2023-10-13T14:13:25;8.82;;;4.07;;
20287;SDS011;10303;51.960;8.372;2023-10-13T14:16:11;10.13;;;4.78;;
20287;SDS011;10303;51.960;8.372;2023-10-13T14:18:45;6.78;;;3.63;;
20287;SDS011;10303;51.960;8.372;2023-10-13T14:21:16;5.82;;;3.47;;
20287;SDS011;10303;51.960;8.372;2023-10-13T14:23:49;9.80;;;3.67;;
20287;SDS011;10303;51.960;8.372;2023-10-13T14:26:19;14.13;;;4.15;;
20287;SDS011;10303;51.960;8.372;2023-10-13T14:28:47;7.93;;;3.78;;
20287;SDS011;10303;51.960;8.372;2023-10-13T14:31:30;12.15;;;4.47;;
20287;SDS011;10303;51.960;8.372;2023-10-13T14:33:57;11.27;;;4.32;;
20287;SDS011;10303;51.960;8.372;2023-10-13T14:36:24;7.75;;;3.78;;
20287;SDS011;10303;51.960;8.372;2023-10-13T14:38:56;11.07;;;4.45;;
20287;SDS011;10303;51.960;8.372;2023-10-13T14:41:22;6.10;;;3.53;;
20287;SDS011;10303;51.960;8.372;2023-10-13T14:43:49;7.80;;;4.40;;
20287;SDS011;10303;51.960;8.372;2023-10-13T14:46:15;12.73;;;4.28;;
20287;SDS011;10303;51.960;8.372;2023-10-13T14:48:48;13.43;;;4.57;;
20287;SDS011;10303;51.960;8.372;2023-10-13T14:51:18;11.77;;;5.05;;
20287;SDS011;10303;51.960;8.372;2023-10-13T14:53:44;6.55;;;3.50;;
20287;SDS011;10303;51.960;8.372;2023-10-13T14:56:14;9.40;;;4.85;;
20287;SDS011;10303;51.960;8.372;2023-10-13T14:58:42;9.00;;;3.65;;
20287;SDS011;10303;51.960;8.372;2023-10-13T15:01:16;12.10;;;3.83;;
20287;SDS011;10303;51.960;8.372;2023-10-13T15:03:45;10.63;;;4.22;;
20287;SDS011;10303;51.960;8.372;2023-10-13T15:06:24;16.52;;;4.13;;
20287;SDS011;10303;51.960;8.372;2023-10-13T15:08:55;6.18;;;3.42;;
20287;SDS011;10303;51.960;8.372;2023-10-13T15:11:24;8.52;;;3.80;;
20287;SDS011;10303;51.960;8.372;2023-10-13T15:14:17;15.98;;;4.43;;
20287;SDS011;10303;51.960;8.372;2023-10-13T15:16:45;9.13;;;3.70;;
20287;SDS011;10303;51.960;8.372;2023-10-13T15:19:11;8.15;;;3.58;;
20287;SDS011;10303;51.960;8.372;2023-10-13T15:21:37;8.95;;;3.83;;
20287;SDS011;10303;51.960;8.372;2023-10-13T15:24:05;10.18;;;4.53;;
20287;SDS011;10303;51.960;8.372;2023-10-13T15:26:41;5.75;;;3.63;;
20287;SDS011;10303;51.960;8.372;2023-10-13T15:31:50;10.93;;;3.92;;
20287;SDS011;10303;51.960;8.372;2023-10-13T15:34:29;8.00;;;3.75;;
20287;SDS011;10303;51.960;8.372;2023-10-13T15:36:57;7.97;;;3.47;;
20287;SDS011;10303;51.960;8.372;2023-10-13T15:39:24;5.95;;;4.10;;
20287;SDS011;10303;51.960;8.372;2023-10-13T15:41:57;9.70;;;4.68;;
20287;SDS011;10303;51.960;8.372;2023-10-13T15:44:24;8.68;;;3.22;;
20287;SDS011;10303;51.960;8.372;2023-10-13T15:46:55;8.98;;;3.22;;
20287;SDS011;10303;51.960;8.372;2023-10-13T15:49:23;10.45;;;4.22;;
20287;SDS011;10303;51.960;8.372;2023-10-13T15:51:53;11.10;;;3.28;;
20287;SDS011;10303;51.960;8.372;2023-10-13T15:54:21;13.07;;;3.75;;
20287;SDS011;10303;51.960;8.372;2023-10-13T15:56:49;8.27;;;3.78;;